Hatsu Envoy — VSQL9 — position and weather

sailwx.info

Track history (hours):
 
Tides and Currents Weather Stations Pressure Air Temp Water Temp Dewpoint Dewpoint Depression Visibility Wind Speed Wind Dir Waves Ship Positions

Hatsu Envoy

Last reported at 2014-Aug-23 03:33 UTC. Time now 2014-Aug-23 19:17 UTC.
Position N 31°34' E 032°10'.

Type: Ship (hazmat cat D). MMSI: 235414000.

Date/timePositionNaut miles runAvg speedWind from/ knotsBaromVisibWave heightAir tempDewpointWater temp
2014-Aug-23 03:33N 31°34' E 032°10'1413.6
2014-Aug-23 02:33N 31°44' E 031°59'1413.8
2014-Aug-23 01:33N 31°50' E 031°44'1613.9
2014-Aug-23 00:25N 31°56' E 031°27'2613.6
2014-Aug-22 22:32N 32°07' E 030°60'1313.1
2014-Aug-22 21:33N 32°12' E 030°46'1413.3
2014-Aug-22 20:30N 32°18' E 030°31'1513.4
2014-Aug-22 19:22N 32°25' E 030°15'2413.1
2014-Aug-22 17:32N 32°36' E 029°50'1312.8
2014-Aug-22 16:30N 32°42' E 029°36'1313.0
2014-Aug-22 15:29N 32°48' E 029°22'1213.1
2014-Aug-22 14:33N 32°51' E 029°08'1414.3
2014-Aug-22 13:33N 32°55' E 028°51'1717.2
2014-Aug-22 12:33N 33°02' E 028°33'1913.5
2014-Aug-22 11:10N 33°10' E 028°12'813.1
2014-Aug-22 10:33N 33°13' E 028°03'25113.2
2014-Aug-21 15:28N 35°05' E 023°31'3015.4
2014-Aug-21 13:33N 35°25' E 023°05'2813.7
2014-Aug-21 11:32N 35°43' E 022°39'1713.1
2014-Aug-21 10:12N 35°56' E 022°25'  
Track history (hours):
 
Tides and Currents Weather Stations Pressure Air Temp Water Temp Dewpoint Dewpoint Depression Visibility Wind Speed Wind Dir Waves Ship Positions

Hatsu Envoy

Last reported at 2014-Aug-23 03:33 UTC. Time now 2014-Aug-23 19:17 UTC.
Position N 31°34' E 032°10'.

Type: Ship (hazmat cat D). MMSI: 235414000.

Date/timePositionNaut miles runAvg speedWind from/ knotsBaromVisibWave heightAir tempDewpointWater temp
2014-Aug-23 03:33N 31°34' E 032°10'1413.6
2014-Aug-23 02:33N 31°44' E 031°59'1413.8
2014-Aug-23 01:33N 31°50' E 031°44'1613.9
2014-Aug-23 00:25N 31°56' E 031°27'2613.6
2014-Aug-22 22:32N 32°07' E 030°60'1313.1
2014-Aug-22 21:33N 32°12' E 030°46'1413.3
2014-Aug-22 20:30N 32°18' E 030°31'1513.4
2014-Aug-22 19:22N 32°25' E 030°15'2413.1
2014-Aug-22 17:32N 32°36' E 029°50'1312.8
2014-Aug-22 16:30N 32°42' E 029°36'1313.0
2014-Aug-22 15:29N 32°48' E 029°22'1213.1
2014-Aug-22 14:33N 32°51' E 029°08'1414.3
2014-Aug-22 13:33N 32°55' E 028°51'1717.2
2014-Aug-22 12:33N 33°02' E 028°33'1913.5
2014-Aug-22 11:10N 33°10' E 028°12'813.1
2014-Aug-22 10:33N 33°13' E 028°03'25113.2
2014-Aug-21 15:28N 35°05' E 023°31'3015.4
2014-Aug-21 13:33N 35°25' E 023°05'2813.7
2014-Aug-21 11:32N 35°43' E 022°39'1713.1
2014-Aug-21 10:12N 35°56' E 022°25'  

Dump ship's entire track history